createdAt,value
2023-05-14T00:02:13.286Z,12.34
2023-05-14T00:05:21.693Z,12.30
2023-05-14T00:08:36.673Z,12.27
2023-05-14T00:11:38.715Z,12.23
2023-05-14T00:14:53.659Z,12.20
2023-05-14T00:18:08.984Z,12.18
2023-05-14T00:21:17.639Z,12.10
2023-05-14T00:24:32.662Z,12.00
2023-05-14T00:27:35.632Z,12.09
2023-05-14T00:30:50.656Z,12.09
2023-05-14T00:33:52.557Z,12.01
2023-05-14T00:37:07.658Z,12.05
2023-05-14T00:40:24.081Z,12.07
2023-05-14T00:43:26.164Z,12.06
2023-05-14T00:46:40.730Z,12.04
2023-05-14T00:49:49.667Z,12.04
2023-05-14T00:52:58.192Z,12.04
2023-05-14T00:56:13.679Z,12.10
2023-05-14T00:59:21.658Z,12.07
2023-05-14T01:02:30.314Z,12.02
2023-05-14T01:06:12.644Z,11.98
2023-05-14T01:09:48.657Z,12.01
2023-05-14T01:12:59.706Z,12.03
2023-05-14T01:16:19.712Z,12.02
2023-05-14T01:19:50.674Z,12.01
2023-05-14T01:22:59.289Z,11.99
2023-05-14T01:26:13.657Z,11.94
2023-05-14T01:29:23.294Z,11.88
2023-05-14T01:32:39.722Z,11.82
2023-05-14T01:35:49.675Z,11.75
2023-05-14T01:39:05.646Z,11.72
2023-05-14T01:42:14.665Z,11.70
2023-05-14T01:45:30.647Z,11.68
2023-05-14T01:48:45.691Z,11.66
2023-05-14T01:51:53.666Z,11.67
2023-05-14T01:55:02.349Z,11.67
2023-05-14T01:58:10.635Z,11.71
2023-05-14T02:01:25.675Z,11.68
2023-05-14T02:04:34.208Z,11.69
2023-05-14T02:07:48.707Z,11.68
2023-05-14T02:11:03.629Z,11.71
2023-05-14T02:14:11.661Z,11.70
2023-05-14T02:17:26.669Z,11.70
2023-05-14T02:20:48.672Z,11.66
2023-05-14T02:23:57.280Z,11.61
2023-05-14T02:27:05.695Z,11.68
2023-05-14T02:30:14.259Z,11.68
2023-05-14T02:33:28.760Z,11.49
2023-05-14T02:36:30.630Z,11.62
2023-05-14T02:39:45.673Z,11.75
2023-05-14T02:43:00.664Z,11.78
2023-05-14T02:46:02.551Z,11.72
2023-05-14T02:49:17.673Z,11.77
2023-05-14T02:52:19.505Z,11.82
2023-05-14T02:55:34.680Z,11.70
2023-05-14T02:58:36.572Z,11.82
2023-05-14T03:01:51.678Z,11.82
2023-05-14T03:05:00.237Z,11.70
2023-05-14T03:08:08.669Z,11.81
2023-05-14T03:11:17.313Z,11.84
2023-05-14T03:14:25.665Z,11.83
2023-05-14T03:17:47.696Z,11.84
2023-05-14T03:20:49.524Z,11.86
2023-05-14T03:24:04.673Z,11.86
2023-05-14T03:27:13.195Z,11.86
2023-05-14T03:30:21.993Z,11.89
2023-05-14T03:33:36.682Z,11.89
2023-05-14T03:36:44.643Z,11.86
2023-05-14T03:39:59.686Z,11.82
2023-05-14T03:43:01.561Z,11.76
2023-05-14T03:46:16.699Z,11.78
2023-05-14T03:49:32.660Z,11.77
2023-05-14T03:52:40.671Z,11.78
2023-05-14T03:55:49.268Z,11.83
2023-05-14T03:58:58.677Z,11.81
2023-05-14T04:02:07.722Z,11.78
2023-05-14T04:05:16.716Z,11.82
2023-05-14T04:08:25.196Z,11.83
2023-05-14T04:11:39.677Z,11.79
2023-05-14T04:14:47.696Z,11.81
2023-05-14T04:18:02.989Z,11.76
2023-05-14T04:21:17.668Z,11.85
2023-05-14T04:24:26.216Z,11.82
2023-05-14T04:27:40.678Z,11.84
2023-05-14T04:30:42.488Z,11.84
2023-05-14T04:33:57.672Z,11.91
2023-05-14T04:37:12.674Z,11.86
2023-05-14T04:40:21.905Z,11.83
2023-05-14T04:43:30.135Z,11.56
2023-05-14T04:46:44.692Z,11.83
2023-05-14T04:49:52.648Z,11.84
2023-05-14T04:53:01.284Z,11.81
2023-05-14T04:56:09.648Z,11.74
2023-05-14T04:59:18.255Z,11.79
2023-05-14T05:02:26.665Z,11.84
2023-05-14T05:05:41.672Z,11.86
2023-05-14T05:08:49.675Z,11.75
2023-05-14T05:11:58.261Z,11.74
2023-05-14T05:15:06.677Z,11.78
2023-05-14T05:18:21.937Z,11.77
2023-05-14T05:21:37.653Z,11.82
2023-05-14T05:24:47.038Z,11.80
2023-05-14T05:27:56.707Z,11.83
2023-05-14T05:31:11.710Z,11.89
2023-05-14T05:34:19.657Z,11.80
2023-05-14T05:37:34.677Z,11.78
2023-05-14T05:40:36.585Z,11.84
2023-05-14T05:43:51.723Z,11.85
2023-05-14T05:47:06.697Z,11.78
2023-05-14T05:50:09.116Z,11.82
2023-05-14T05:53:23.669Z,11.85
2023-05-14T05:56:32.207Z,11.93
2023-05-14T05:59:46.656Z,11.93
2023-05-14T06:02:55.264Z,11.84
2023-05-14T06:06:09.692Z,11.81
2023-05-14T06:09:11.561Z,11.85
2023-05-14T06:12:26.665Z,11.84
2023-05-14T06:15:35.258Z,11.73
2023-05-14T06:18:56.698Z,11.89
2023-05-14T06:22:04.691Z,11.85
2023-05-14T06:25:19.682Z,11.86
2023-05-14T06:28:28.239Z,11.92
2023-05-14T06:31:36.751Z,11.93
2023-05-14T06:34:45.180Z,11.89
2023-05-14T06:37:59.694Z,11.85
2023-05-14T06:41:21.765Z,11.89
2023-05-14T06:44:30.252Z,11.94
2023-05-14T06:47:38.758Z,11.99
2023-05-14T06:50:54.671Z,12.03
2023-05-14T06:54:02.671Z,12.09
2023-05-14T06:57:17.677Z,12.16
2023-05-14T07:00:20.161Z,12.15
2023-05-14T07:03:34.759Z,12.16
2023-05-14T07:06:36.742Z,12.23
2023-05-14T07:09:51.663Z,12.30
2023-05-14T07:13:00.240Z,12.36
2023-05-14T07:16:15.676Z,12.39
2023-05-14T07:19:30.892Z,12.50
2023-05-14T07:22:45.722Z,12.55
2023-05-14T07:25:47.603Z,12.67
2023-05-14T07:29:02.675Z,12.80
2023-05-14T07:32:17.657Z,12.92
2023-05-14T07:35:19.549Z,12.88
2023-05-14T07:38:34.663Z,12.92
2023-05-14T07:41:49.675Z,13.01
2023-05-14T07:45:04.678Z,13.15
2023-05-14T07:48:19.752Z,13.20
2023-05-14T07:51:28.678Z,13.28
2023-05-14T07:54:43.684Z,13.29
2023-05-14T07:57:52.208Z,13.23
2023-05-14T08:01:00.686Z,13.25
2023-05-14T08:04:09.360Z,13.29
2023-05-14T08:07:24.689Z,13.38
2023-05-14T08:10:26.945Z,13.36
2023-05-14T08:13:41.671Z,13.34
2023-05-14T08:17:03.805Z,13.31
2023-05-14T08:20:18.669Z,13.19
2023-05-14T08:23:27.283Z,13.34
2023-05-14T08:26:35.661Z,13.36
2023-05-14T08:29:50.694Z,13.40
2023-05-14T08:32:52.585Z,13.45
2023-05-14T08:36:07.704Z,13.44
2023-05-14T08:39:16.259Z,13.44
2023-05-14T08:42:31.672Z,13.39
2023-05-14T08:45:35.384Z,13.53
2023-05-14T08:48:54.756Z,13.47
2023-05-14T08:51:57.408Z,13.50
2023-05-14T08:55:13.695Z,13.49
2023-05-14T08:58:28.712Z,13.53
2023-05-14T09:01:45.733Z,13.38
2023-05-14T09:05:05.684Z,13.53
2023-05-14T09:08:21.682Z,13.57
2023-05-14T09:11:23.530Z,13.59
2023-05-14T09:14:39.666Z,13.63
2023-05-14T09:17:41.596Z,13.57
2023-05-14T09:20:57.668Z,13.52
2023-05-14T09:24:12.688Z,13.50
2023-05-14T09:27:27.658Z,13.44
2023-05-14T09:30:29.608Z,13.48
2023-05-14T09:33:44.670Z,13.47
2023-05-14T09:36:52.675Z,13.47
2023-05-14T09:40:06.508Z,13.46
2023-05-14T09:43:21.677Z,13.47
2023-05-14T09:46:30.688Z,13.49
2023-05-14T09:49:40.043Z,13.52
2023-05-14T09:52:48.703Z,13.50
2023-05-14T09:56:03.697Z,13.49
2023-05-14T09:59:18.669Z,13.58
2023-05-14T10:02:27.144Z,13.61
2023-05-14T10:05:42.697Z,13.60
2023-05-14T10:08:55.894Z,13.64
2023-05-14T10:12:11.694Z,13.65
2023-05-14T10:15:28.774Z,13.66
2023-05-14T10:18:55.081Z,13.68
2023-05-14T10:22:14.702Z,13.74
2023-05-14T10:25:29.700Z,13.78
2023-05-14T10:28:38.361Z,13.73
2023-05-14T10:32:01.677Z,13.59
2023-05-14T10:35:16.512Z,13.69
2023-05-14T10:38:36.766Z,13.79
2023-05-14T10:41:45.238Z,13.71
2023-05-14T10:44:55.723Z,13.56
2023-05-14T10:48:10.760Z,13.62
2023-05-14T10:51:19.250Z,13.66
2023-05-14T10:54:34.741Z,13.61
2023-05-14T10:57:52.692Z,13.58
2023-05-14T11:01:07.699Z,13.66
2023-05-14T11:04:23.936Z,13.68
2023-05-14T11:07:41.714Z,13.73
2023-05-14T11:10:50.722Z,13.72
2023-05-14T11:13:59.446Z,13.73
2023-05-14T11:17:15.760Z,13.72
2023-05-14T11:20:30.974Z,13.75
2023-05-14T11:23:39.692Z,13.76
2023-05-14T11:26:54.680Z,13.74
2023-05-14T11:30:03.518Z,13.72
2023-05-14T11:33:18.836Z,13.69
2023-05-14T11:36:33.707Z,13.73
2023-05-14T11:39:42.670Z,13.71
2023-05-14T11:42:58.710Z,13.73
2023-05-14T11:46:00.591Z,13.74
2023-05-14T11:49:16.692Z,13.71
2023-05-14T11:52:27.741Z,13.64
2023-05-14T11:55:42.769Z,13.26
2023-05-14T11:59:03.697Z,13.56
2023-05-14T12:02:14.933Z,13.52
2023-05-14T12:05:23.678Z,13.48
2023-05-14T12:08:39.703Z,13.40
2023-05-14T12:11:49.442Z,13.42
2023-05-14T12:15:06.700Z,13.36
2023-05-14T12:18:28.822Z,13.35
2023-05-14T12:21:44.697Z,13.36
2023-05-14T12:24:57.802Z,13.36
2023-05-14T12:28:22.721Z,13.34
2023-05-14T12:31:38.737Z,13.32
2023-05-14T12:34:53.715Z,13.33
2023-05-14T12:37:55.602Z,13.30
2023-05-14T12:41:10.700Z,13.32
2023-05-14T12:44:18.691Z,13.28
2023-05-14T12:47:27.322Z,13.22
2023-05-14T12:50:35.694Z,13.26
2023-05-14T12:53:50.698Z,13.23
2023-05-14T12:56:58.737Z,13.20
2023-05-14T13:00:08.686Z,13.22
2023-05-14T13:03:16.821Z,13.17
2023-05-14T13:06:25.277Z,13.16
2023-05-14T13:09:39.684Z,13.12
2023-05-14T13:12:48.299Z,13.11
2023-05-14T13:15:56.719Z,13.08
2023-05-14T13:19:12.118Z,13.15
2023-05-14T13:22:26.669Z,13.08
2023-05-14T13:25:34.693Z,13.00
2023-05-14T13:28:49.679Z,13.10
2023-05-14T13:32:04.700Z,13.09
2023-05-14T13:35:20.687Z,13.02
2023-05-14T13:38:28.704Z,12.98
2023-05-14T13:41:37.258Z,13.06
2023-05-14T13:44:51.703Z,13.04
2023-05-14T13:47:59.775Z,13.01
2023-05-14T13:51:14.761Z,13.03
2023-05-14T13:54:29.739Z,13.05
2023-05-14T13:57:44.715Z,13.02
2023-05-14T14:00:59.788Z,13.04
2023-05-14T14:04:01.650Z,12.95
2023-05-14T14:07:16.690Z,12.89
2023-05-14T14:10:18.516Z,12.98
2023-05-14T14:13:33.758Z,12.92
2023-05-14T14:16:48.732Z,12.90
2023-05-14T14:20:10.680Z,12.83
2023-05-14T14:23:25.759Z,12.82
2023-05-14T14:26:40.724Z,12.78
2023-05-14T14:29:55.730Z,12.61
2023-05-14T14:33:04.410Z,12.77
2023-05-14T14:36:19.785Z,12.73
2023-05-14T14:39:28.256Z,12.65
2023-05-14T14:42:43.746Z,12.58
2023-05-14T14:45:58.747Z,12.66
2023-05-14T14:49:00.668Z,12.63
2023-05-14T14:52:15.734Z,12.64
2023-05-14T14:55:24.497Z,12.60
2023-05-14T14:58:33.725Z,12.35
2023-05-14T15:01:48.833Z,12.37
2023-05-14T15:04:57.290Z,12.25
2023-05-14T15:08:05.725Z,12.31
2023-05-14T15:11:14.641Z,12.31
2023-05-14T15:14:22.793Z,12.25
2023-05-14T15:17:31.253Z,12.27
2023-05-14T15:20:39.704Z,12.24
2023-05-14T15:23:54.721Z,12.20
2023-05-14T15:27:09.720Z,12.16
2023-05-14T15:30:18.737Z,12.19
2023-05-14T15:33:33.699Z,12.22
2023-05-14T15:36:48.705Z,12.20
2023-05-14T15:39:50.564Z,12.18
2023-05-14T15:43:05.711Z,12.06
2023-05-14T15:46:07.730Z,12.03
2023-05-14T15:49:22.723Z,12.01
2023-05-14T15:52:24.608Z,11.97
2023-05-14T15:55:39.728Z,12.00
2023-05-14T15:58:48.788Z,12.02
2023-05-14T16:02:03.827Z,11.90
2023-05-14T16:05:20.781Z,11.96
2023-05-14T16:08:35.726Z,12.00
2023-05-14T16:11:50.751Z,11.95
2023-05-14T16:14:59.293Z,12.03
2023-05-14T16:18:13.704Z,12.05
2023-05-14T16:21:29.010Z,12.07
2023-05-14T16:24:37.742Z,12.03
2023-05-14T16:27:52.755Z,12.05
2023-05-14T16:31:07.758Z,12.11
2023-05-14T16:34:09.608Z,12.11
2023-05-14T16:37:25.708Z,12.11
2023-05-14T16:40:34.308Z,12.11
2023-05-14T16:43:43.712Z,12.13
2023-05-14T16:46:52.400Z,12.09
2023-05-14T16:50:00.702Z,12.13
2023-05-14T16:53:09.281Z,12.17
2023-05-14T16:56:23.756Z,12.14
2023-05-14T16:59:31.705Z,12.17
2023-05-14T17:02:40.366Z,12.20
2023-05-14T17:05:54.909Z,12.17
2023-05-14T17:09:03.702Z,12.18
2023-05-14T17:12:12.262Z,12.19
2023-05-14T17:15:20.701Z,12.18
2023-05-14T17:18:29.832Z,12.20
2023-05-14T17:21:51.725Z,12.22
2023-05-14T17:25:00.688Z,12.17
2023-05-14T17:28:15.696Z,12.20
2023-05-14T17:31:24.334Z,12.11
2023-05-14T17:34:38.692Z,12.16
2023-05-14T17:37:53.725Z,12.19
2023-05-14T17:40:55.824Z,12.15
2023-05-14T17:44:12.725Z,12.16
2023-05-14T17:47:27.754Z,12.19
2023-05-14T17:50:29.697Z,12.22
2023-05-14T17:53:44.707Z,12.22
2023-05-14T17:57:00.755Z,12.19
2023-05-14T18:00:15.719Z,12.21
2023-05-14T18:03:30.809Z,12.21
2023-05-14T18:06:33.041Z,12.15
2023-05-14T18:09:48.816Z,12.21
2023-05-14T18:12:58.521Z,12.20
2023-05-14T18:16:07.889Z,12.16
2023-05-14T18:19:29.719Z,12.22
2023-05-14T18:22:45.725Z,12.19
2023-05-14T18:26:01.764Z,12.13
2023-05-14T18:29:18.190Z,12.21
2023-05-14T18:32:21.449Z,12.19
2023-05-14T18:35:38.082Z,12.21
2023-05-14T18:38:54.086Z,12.21
2023-05-14T18:42:03.727Z,12.22
2023-05-14T18:45:13.664Z,12.20
2023-05-14T18:48:23.726Z,12.26
2023-05-14T18:51:41.167Z,12.20
2023-05-14T18:54:51.198Z,12.26
2023-05-14T18:58:01.073Z,12.30
2023-05-14T19:01:19.150Z,12.30
2023-05-14T19:04:29.726Z,12.29
2023-05-14T19:07:49.622Z,12.36
2023-05-14T19:10:53.403Z,12.38
2023-05-14T19:14:09.703Z,12.37
2023-05-14T19:17:20.594Z,12.33
2023-05-14T19:20:30.728Z,12.37
2023-05-14T19:23:54.772Z,12.39
2023-05-14T19:26:58.042Z,12.39
2023-05-14T19:30:14.763Z,12.39
2023-05-14T19:33:30.709Z,12.39
2023-05-14T19:36:33.547Z,12.40
2023-05-14T19:39:50.149Z,12.39
2023-05-14T19:42:59.684Z,12.41
2023-05-14T19:46:09.117Z,12.37
2023-05-14T19:49:18.267Z,12.39
2023-05-14T19:52:33.775Z,12.44
2023-05-14T19:55:49.746Z,12.45
2023-05-14T19:58:58.937Z,12.45
2023-05-14T20:02:14.968Z,12.45
2023-05-14T20:05:23.742Z,12.46
2023-05-14T20:08:32.572Z,12.49
2023-05-14T20:11:40.737Z,12.49
2023-05-14T20:14:49.472Z,12.45
2023-05-14T20:17:59.078Z,12.43
2023-05-14T20:21:14.098Z,12.44
2023-05-14T20:24:29.001Z,12.46
2023-05-14T20:27:43.735Z,12.47
2023-05-14T20:30:59.146Z,12.48
2023-05-14T20:34:07.773Z,12.47
2023-05-14T20:37:16.541Z,12.49
2023-05-14T20:40:31.818Z,12.50
2023-05-14T20:43:40.334Z,12.42
2023-05-14T20:46:54.752Z,12.45
2023-05-14T20:49:56.661Z,12.44
2023-05-14T20:53:18.709Z,12.46
2023-05-14T20:56:27.347Z,12.22
2023-05-14T20:59:41.740Z,12.49
2023-05-14T21:02:43.660Z,12.54
2023-05-14T21:05:58.710Z,12.57
2023-05-14T21:09:06.750Z,12.56
2023-05-14T21:12:15.361Z,12.56
2023-05-14T21:15:29.744Z,12.53
2023-05-14T21:18:38.756Z,12.55
2023-05-14T21:22:00.717Z,12.54
2023-05-14T21:25:09.660Z,12.53
2023-05-14T21:28:17.712Z,12.39
2023-05-14T21:31:32.816Z,12.51
2023-05-14T21:34:40.762Z,12.51
2023-05-14T21:37:49.214Z,12.51
2023-05-14T21:40:57.724Z,12.50
2023-05-14T21:44:12.739Z,12.47
2023-05-14T21:47:27.802Z,12.44
2023-05-14T21:50:29.751Z,12.45
2023-05-14T21:53:44.736Z,12.33
2023-05-14T21:56:53.446Z,12.41
2023-05-14T22:00:09.755Z,12.38
2023-05-14T22:03:18.458Z,12.40
2023-05-14T22:06:33.762Z,12.41
2023-05-14T22:09:50.124Z,12.44
2023-05-14T22:12:52.084Z,12.44
2023-05-14T22:16:12.842Z,12.45
2023-05-14T22:19:16.377Z,12.40
2023-05-14T22:22:38.743Z,12.47
2023-05-14T22:25:47.297Z,12.48
2023-05-14T22:28:55.726Z,12.47
2023-05-14T22:32:04.574Z,12.50
2023-05-14T22:35:19.753Z,12.51
2023-05-14T22:38:21.613Z,12.51
2023-05-14T22:41:36.719Z,12.52
2023-05-14T22:44:38.529Z,12.48
2023-05-14T22:47:53.806Z,12.51
2023-05-14T22:51:01.741Z,12.52
2023-05-14T22:54:18.406Z,12.52
2023-05-14T22:57:20.313Z,12.45
2023-05-14T23:00:34.745Z,12.55
2023-05-14T23:03:42.744Z,12.54
2023-05-14T23:06:51.318Z,12.47
2023-05-14T23:09:59.750Z,12.55
2023-05-14T23:13:14.721Z,12.55
2023-05-14T23:16:16.685Z,12.53
2023-05-14T23:19:31.790Z,12.53
2023-05-14T23:22:53.744Z,12.54
2023-05-14T23:25:55.603Z,12.54
2023-05-14T23:29:10.735Z,12.54
2023-05-14T23:32:12.581Z,12.54
2023-05-14T23:35:30.724Z,12.54
2023-05-14T23:38:40.054Z,12.56
2023-05-14T23:41:48.731Z,12.55
2023-05-14T23:44:57.293Z,12.55
2023-05-14T23:48:06.781Z,12.50
2023-05-14T23:51:21.727Z,12.50
2023-05-14T23:54:29.742Z,12.58
2023-05-14T23:57:44.740Z,12.59
